Time;durP1;ratioP1;P1;durP2;ratioP2;P2;SDS_P1;SDS_P2;PMS_P1;PMS_P2;Temp;Humidity;BMP_temperature;BMP_pressure;BME280_temperature;BME280_humidity;BME280_pressure;Samples;Min_cycle;Max_cycle;Signal;HPM_P1;HPM_P2
2023/01/27 00:00:47;;;;;;;;;;;;;;;;;;5049171;28;5441;-61
2023/01/27 00:03:12;;;;;;;;;;;;;;;;;;5049510;28;5004;-60
2023/01/27 00:05:38;;;;;;;;;;;;;;;;;;5058364;28;5036;-59
2023/01/27 00:08:03;;;;;;;;;;;;;;;;;;5064984;28;5080;-59
2023/01/27 00:10:28;;;;;;;;;;;;;;;;;;5068151;28;1164;-60
2023/01/27 00:15:37;;;;;;;;;;;;;;;;;;5066292;28;4996;-61
2023/01/27 00:18:03;;;;;;;;;;;;;;;;;;5064039;28;4587;-61
2023/01/27 00:26:01;;;;;;;;;;;;;;;;;;5067443;28;5115;-64
2023/01/27 00:28:30;;;;;;;;;;;;;;;;;;5065574;28;3566;-59
2023/01/27 00:30:55;;;;;;;;;;;;;;;;;;5042713;28;4430;-60
2023/01/27 00:33:26;;;;;;;;;;;;;;;;;;5046946;28;5219;-59
2023/01/27 00:36:05;;;;;;;;;;;;;;;;;;5046075;28;5359;-58
2023/01/27 00:38:30;;;;;;;;;;;;;;;;;;5069595;28;4999;-61
2023/01/27 00:41:18;;;;;;;;;;;;;;;;;;5068793;28;4642;-59
2023/01/27 00:43:43;;;;;;;;;;;;;;;;;;5065726;28;4657;-60
2023/01/27 00:46:09;;;;;;;;;;;;;;;;;;5066538;28;3488;-60
2023/01/27 00:48:34;;;;;;;;;;;;;;;;;;5065906;28;4585;-57
2023/01/27 00:50:59;;;;;;;;;;;;;;;;;;5064694;28;5119;-65
2023/01/27 00:53:25;;;;;;;;;;;;;;;;;;5066220;28;4503;-61
2023/01/27 00:55:50;;;;;;;;;;;;;;;;;;5064888;28;4916;-60
2023/01/27 00:58:15;;;;;;;;;;;;;;;;;;5066119;28;1426;-60
2023/01/27 01:00:40;;;;;;;;;;;;;;;;;;5065594;28;5011;-61
2023/01/27 01:03:06;;;;;;;;;;;;;;;;;;5068590;28;5160;-61
2023/01/27 01:05:31;;;;;;;;;;;;;;;;;;5067128;28;4817;-61
2023/01/27 01:07:56;;;;;;;;;;;;;;;;;;5065818;28;5167;-59
2023/01/27 01:10:21;;;;;;;;;;;;;;;;;;5065121;28;3589;-59
2023/01/27 01:12:47;;;;;;;;;;;;;;;;;;5063324;28;4942;-60
2023/01/27 01:15:12;;;;;;;;;;;;;;;;;;5063404;28;4903;-59
2023/01/27 01:17:37;;;;;;;;;;;;;;;;;;5065588;28;4913;-59
2023/01/27 01:20:03;;;;;;;;;;;;;;;;;;5062674;28;5924;-59
2023/01/27 01:22:28;;;;;;;;;;;;;;;;;;5066106;28;3530;-59
2023/01/27 01:24:53;;;;;;;;;;;;;;;;;;5064711;28;5074;-60
2023/01/27 01:27:18;;;;;;;;;;;;;;;;;;5053183;28;5053;-58
2023/01/27 01:29:44;;;;;;;;;;;;;;;;;;5041021;28;4778;-62
2023/01/27 01:32:09;;;;;;;;;;;;;;;;;;5050939;28;5077;-58
2023/01/27 01:34:35;;;;;;;;;;;;;;;;;;5049128;28;4745;-60
2023/01/27 01:37:00;;;;;;;;;;;;;;;;;;5064145;28;3550;-61
2023/01/27 01:39:25;;;;;;;;;;;;;;;;;;5059970;28;4548;-59
2023/01/27 01:41:51;;;;;;;;;;;;;;;;;;5063559;28;4999;-61
2023/01/27 01:44:17;;;;;;;;;;;;;;;;;;5062787;28;4715;-61
2023/01/27 01:46:42;;;;;;;;;;;;;;;;;;5057767;28;4668;-59
2023/01/27 01:49:08;;;;;;;;;;;;;;;;;;5064353;28;3637;-58
2023/01/27 01:51:33;;;;;;;;;;;;;;;;;;5063966;28;4531;-57
2023/01/27 01:54:00;;;;;;;;;;;;;;;;;;5064261;28;4803;-58
2023/01/27 01:56:36;;;;;;;;;;;;;;;;;;5093596;28;5269;-61
2023/01/27 01:59:02;;;;;;;;;;;;;;;;;;5058514;28;4499;-65
2023/01/27 02:01:27;;;;;;;;;;;;;;;;;;5064350;28;3374;-59
2023/01/27 02:03:54;;;;;;;;;;;;;;;;;;5064578;28;4915;-60
2023/01/27 02:06:19;;;;;;;;;;;;;;;;;;5065017;28;4445;-56
2023/01/27 02:08:45;;;;;;;;;;;;;;;;;;5053699;28;4505;-57
2023/01/27 02:11:10;;;;;;;;;;;;;;;;;;5044796;28;5021;-58
2023/01/27 02:13:36;;;;;;;;;;;;;;;;;;5046635;28;5024;-63
2023/01/27 02:16:01;;;;;;;;;;;;;;;;;;5076974;28;3539;-64
2023/01/27 02:18:27;;;;;;;;;;;;;;;;;;5044188;28;4587;-59
2023/01/27 02:20:53;;;;;;;;;;;;;;;;;;5074782;28;4965;-59
2023/01/27 02:23:18;;;;;;;;;;;;;;;;;;5039802;28;4590;-59
2023/01/27 02:25:46;;;;;;;;;;;;;;;;;;5042990;28;5456;-58
2023/01/27 02:28:11;;;;;;;;;;;;;;;;;;5071835;28;3414;-58
2023/01/27 02:30:36;;;;;;;;;;;;;;;;;;5046064;28;4902;-57
2023/01/27 02:33:02;;;;;;;;;;;;;;;;;;5046854;28;4837;-62
2023/01/27 02:35:37;;;;;;;;;;;;;;;;;;5050486;28;4904;-58
2023/01/27 02:38:03;;;;;;;;;;;;;;;;;;5062313;28;4874;-59
2023/01/27 02:40:28;;;;;;;;;;;;;;;;;;5067384;28;3200;-59
2023/01/27 02:42:54;;;;;;;;;;;;;;;;;;5063993;28;4830;-60
2023/01/27 02:45:19;;;;;;;;;;;;;;;;;;5098781;28;4988;-58
2023/01/27 02:47:45;;;;;;;;;;;;;;;;;;5054629;28;4929;-58
2023/01/27 02:50:10;;;;;;;;;;;;;;;;;;5046062;28;4643;-57
2023/01/27 02:52:35;;;;;;;;;;;;;;;;;;5062709;28;5037;-64
2023/01/27 02:55:00;;;;;;;;;;;;;;;;;;5042873;28;3421;-58
2023/01/27 02:57:26;;;;;;;;;;;;;;;;;;5058027;28;4624;-58
2023/01/27 02:59:51;;;;;;;;;;;;;;;;;;5064784;28;4660;-58
2023/01/27 03:02:21;;;;;;;;;;;;;;;;;;5067838;28;4670;-58
2023/01/27 03:04:46;;;;;;;;;;;;;;;;;;5064427;28;5331;-57
2023/01/27 03:07:12;;;;;;;;;;;;;;;;;;5047876;28;1148;-58
2023/01/27 03:09:37;;;;;;;;;;;;;;;;;;5046057;28;4866;-57
2023/01/27 03:12:21;;;;;;;;;;;;;;;;;;5056809;28;5335;-60
2023/01/27 03:20:15;;;;;;;;;;;;;;;;;;5067048;28;5424;-58
2023/01/27 03:22:40;;;;;;;;;;;;;;;;;;5070044;28;5002;-58
2023/01/27 03:25:05;;;;;;;;;;;;;;;;;;5070523;28;3577;-63
2023/01/27 03:27:30;;;;;;;;;;;;;;;;;;5066311;28;4966;-58
2023/01/27 03:29:56;;;;;;;;;;;;;;;;;;5067517;28;4489;-57
2023/01/27 03:32:28;;;;;;;;;;;;;;;;;;5068451;28;5072;-57
2023/01/27 03:34:56;;;;;;;;;;;;;;;;;;5070777;28;5032;-60
2023/01/27 03:48:19;;;;;;;;;;;;;;;;;;5076240;28;4877;-58
2023/01/27 03:50:51;;;;;;;;;;;;;;;;;;5047448;28;5012;-59
2023/01/27 03:53:17;;;;;;;;;;;;;;;;;;5047376;28;5132;-62
2023/01/27 03:55:42;;;;;;;;;;;;;;;;;;5081280;28;5091;-58
2023/01/27 03:58:17;;;;;;;;;;;;;;;;;;5042346;28;3505;-60
2023/01/27 04:00:42;;;;;;;;;;;;;;;;;;5048281;28;4420;-58
2023/01/27 04:08:35;;;;;;;;;;;;;;;;;;5060244;28;5172;-63
2023/01/27 04:13:45;;;;;;;;;;;;;;;;;;5046467;28;5050;-60
2023/01/27 04:16:11;;;;;;;;;;;;;;;;;;5066623;28;3502;-60
2023/01/27 04:18:36;;;;;;;;;;;;;;;;;;5052494;28;5168;-58
2023/01/27 04:21:02;;;;;;;;;;;;;;;;;;5060958;28;4450;-63
2023/01/27 04:23:27;;;;;;;;;;;;;;;;;;5066373;28;4536;-58
2023/01/27 04:25:53;;;;;;;;;;;;;;;;;;5065429;28;5203;-58
2023/01/27 04:28:18;;;;;;;;;;;;;;;;;;5067203;28;1496;-57
2023/01/27 04:30:43;;;;;;;;;;;;;;;;;;5064156;28;5130;-57
2023/01/27 04:33:09;;;;;;;;;;;;;;;;;;5063649;28;4625;-59
2023/01/27 04:35:34;;;;;;;;;;;;;;;;;;5064184;28;4924;-59
2023/01/27 04:37:59;;;;;;;;;;;;;;;;;;5067434;28;5050;-60
2023/01/27 04:40:24;;;;;;;;;;;;;;;;;;5066540;28;3543;-60
2023/01/27 04:42:51;;;;;;;;;;;;;;;;;;5067333;28;4837;-59
2023/01/27 04:45:17;;;;;;;;;;;;;;;;;;5068181;28;5007;-58
2023/01/27 04:47:42;;;;;;;;;;;;;;;;;;5068528;28;5333;-59
2023/01/27 04:50:07;;;;;;;;;;;;;;;;;;5068564;28;4467;-58
2023/01/27 04:52:33;;;;;;;;;;;;;;;;;;5067683;28;3523;-65
2023/01/27 04:54:58;;;;;;;;;;;;;;;;;;5065018;28;5008;-64
2023/01/27 04:57:24;;;;;;;;;;;;;;;;;;5063659;28;5174;-61
2023/01/27 04:59:49;;;;;;;;;;;;;;;;;;5051488;28;5000;-57
2023/01/27 05:02:15;;;;;;;;;;;;;;;;;;5045933;28;4529;-59
2023/01/27 05:04:40;;;;;;;;;;;;;;;;;;5045186;28;4966;-61
2023/01/27 05:07:05;;;;;;;;;;;;;;;;;;5050399;28;998;-60
2023/01/27 05:09:30;;;;;;;;;;;;;;;;;;5048432;28;5280;-59
2023/01/27 05:11:56;;;;;;;;;;;;;;;;;;5048686;28;5243;-59
2023/01/27 05:14:22;;;;;;;;;;;;;;;;;;5048343;28;5091;-59
2023/01/27 05:16:47;;;;;;;;;;;;;;;;;;5044847;28;4699;-62
2023/01/27 05:19:12;;;;;;;;;;;;;;;;;;5046818;28;3636;-58
2023/01/27 05:21:38;;;;;;;;;;;;;;;;;;5062891;28;4992;-58
2023/01/27 05:24:03;;;;;;;;;;;;;;;;;;5058594;28;4891;-64
2023/01/27 05:26:28;;;;;;;;;;;;;;;;;;5063985;28;5179;-61
2023/01/27 05:28:55;;;;;;;;;;;;;;;;;;5089291;28;5124;-58
2023/01/27 05:31:22;;;;;;;;;;;;;;;;;;5048860;28;3307;-60
2023/01/27 05:33:48;;;;;;;;;;;;;;;;;;5045863;28;4991;-59
2023/01/27 05:36:14;;;;;;;;;;;;;;;;;;5054613;28;4945;-59
2023/01/27 05:38:39;;;;;;;;;;;;;;;;;;5057124;28;4967;-58
2023/01/27 05:41:05;;;;;;;;;;;;;;;;;;5043707;28;5132;-60
2023/01/27 05:43:31;;;;;;;;;;;;;;;;;;5041936;28;4604;-59
2023/01/27 05:46:06;;;;;;;;;;;;;;;;;;5045844;28;4907;-58
2023/01/27 05:48:32;;;;;;;;;;;;;;;;;;5062011;28;5114;-59
2023/01/27 05:50:57;;;;;;;;;;;;;;;;;;5066251;28;5172;-59
2023/01/27 05:53:23;;;;;;;;;;;;;;;;;;5059214;28;5213;-63
2023/01/27 05:55:49;;;;;;;;;;;;;;;;;;5049470;28;5070;-58
2023/01/27 05:58:14;;;;;;;;;;;;;;;;;;5040869;28;3547;-58
2023/01/27 06:00:39;;;;;;;;;;;;;;;;;;5041834;28;4662;-58
2023/01/27 06:03:04;;;;;;;;;;;;;;;;;;5059534;28;5059;-60
2023/01/27 06:05:30;;;;;;;;;;;;;;;;;;5064418;28;5134;-58
2023/01/27 06:07:55;;;;;;;;;;;;;;;;;;5067740;28;4680;-62
2023/01/27 06:10:20;;;;;;;;;;;;;;;;;;5064323;28;3621;-63
2023/01/27 06:12:45;;;;;;;;;;;;;;;;;;5061553;28;4965;-61
2023/01/27 06:15:11;;;;;;;;;;;;;;;;;;5062241;28;5086;-58
2023/01/27 06:17:36;;;;;;;;;;;;;;;;;;5064864;28;5043;-58
2023/01/27 06:20:01;;;;;;;;;;;;;;;;;;5060344;28;5047;-59
2023/01/27 06:22:26;;;;;;;;;;;;;;;;;;5061978;28;3564;-58
2023/01/27 06:24:52;;;;;;;;;;;;;;;;;;5061447;28;4402;-61
2023/01/27 06:27:17;;;;;;;;;;;;;;;;;;5065973;28;4964;-60
2023/01/27 06:29:42;;;;;;;;;;;;;;;;;;5051728;28;4972;-60
2023/01/27 06:32:07;;;;;;;;;;;;;;;;;;5050414;28;5319;-58
2023/01/27 06:34:33;;;;;;;;;;;;;;;;;;5064746;28;3507;-58
2023/01/27 06:36:58;;;;;;;;;;;;;;;;;;5056167;28;4897;-59
2023/01/27 06:39:23;;;;;;;;;;;;;;;;;;5064093;28;4926;-59
2023/01/27 06:41:49;;;;;;;;;;;;;;;;;;5055673;28;5037;-58
2023/01/27 06:44:14;;;;;;;;;;;;;;;;;;5053753;28;4508;-63
2023/01/27 06:46:40;;;;;;;;;;;;;;;;;;5061188;28;5067;-64
2023/01/27 06:49:05;;;;;;;;;;;;;;;;;;5051949;28;3461;-57
2023/01/27 06:51:30;;;;;;;;;;;;;;;;;;5054107;28;4676;-58
2023/01/27 06:53:56;;;;;;;;;;;;;;;;;;5051764;28;4644;-60
2023/01/27 06:56:21;;;;;;;;;;;;;;;;;;5065704;28;4708;-58
2023/01/27 06:58:46;;;;;;;;;;;;;;;;;;5060150;28;5129;-58
2023/01/27 07:01:11;;;;;;;;;;;;;;;;;;5045819;28;3358;-58
2023/01/27 07:03:37;;;;;;;;;;;;;;;;;;5042333;28;5019;-59
2023/01/27 07:06:02;;;;;;;;;;;;;;;;;;5043188;28;5140;-57
2023/01/27 07:08:27;;;;;;;;;;;;;;;;;;5050180;28;5125;-57
2023/01/27 07:10:53;;;;;;;;;;;;;;;;;;5048182;28;5045;-58
2023/01/27 07:13:18;;;;;;;;;;;;;;;;;;5044601;28;3316;-59
2023/01/27 07:15:43;;;;;;;;;;;;;;;;;;5049438;28;5170;-62
2023/01/27 07:18:09;;;;;;;;;;;;;;;;;;5047993;28;4471;-62
2023/01/27 07:20:34;;;;;;;;;;;;;;;;;;5049455;28;5036;-61
2023/01/27 07:23:00;;;;;;;;;;;;;;;;;;5042407;28;5069;-62
2023/01/27 07:25:25;;;;;;;;;;;;;;;;;;5043388;28;3470;-61
2023/01/27 07:27:50;;;;;;;;;;;;;;;;;;5044643;28;4694;-61
2023/01/27 07:30:16;;;;;;;;;;;;;;;;;;5046408;28;5015;-62
2023/01/27 07:32:41;;;;;;;;;;;;;;;;;;5040300;28;5147;-57
2023/01/27 07:35:07;;;;;;;;;;;;;;;;;;5047345;28;4772;-57
2023/01/27 07:37:32;;;;;;;;;;;;;;;;;;5048484;28;3301;-59
2023/01/27 07:39:57;;;;;;;;;;;;;;;;;;5068152;28;4389;-57
2023/01/27 07:42:23;;;;;;;;;;;;;;;;;;5067416;28;5061;-57
2023/01/27 07:44:48;;;;;;;;;;;;;;;;;;5062941;28;5205;-57
2023/01/27 07:47:13;;;;;;;;;;;;;;;;;;5065396;28;4652;-57
2023/01/27 07:49:38;;;;;;;;;;;;;;;;;;5064213;28;5168;-59
2023/01/27 07:52:04;;;;;;;;;;;;;;;;;;5065600;28;3685;-59
2023/01/27 07:54:29;;;;;;;;;;;;;;;;;;5058414;28;4700;-59
2023/01/27 07:56:54;;;;;;;;;;;;;;;;;;5067862;28;5127;-57
2023/01/27 07:59:19;;;;;;;;;;;;;;;;;;5067408;28;5134;-59
2023/01/27 08:01:45;;;;;;;;;;;;;;;;;;5067620;28;5273;-59
2023/01/27 08:04:10;;;;;;;;;;;;;;;;;;5055066;28;1218;-59
2023/01/27 08:06:39;;;;;;;;;;;;;;;;;;5044086;28;5003;-58
2023/01/27 08:09:04;;;;;;;;;;;;;;;;;;5061325;28;5095;-59
2023/01/27 08:11:29;;;;;;;;;;;;;;;;;;5066548;28;5340;-58
2023/01/27 08:13:54;;;;;;;;;;;;;;;;;;5068470;28;5114;-58
2023/01/27 08:16:20;;;;;;;;;;;;;;;;;;5069190;28;3202;-58
2023/01/27 08:18:45;;;;;;;;;;;;;;;;;;5067111;28;5045;-58
2023/01/27 08:21:10;;;;;;;;;;;;;;;;;;5068052;28;4837;-58
2023/01/27 08:23:36;;;;;;;;;;;;;;;;;;5065083;28;5046;-59
2023/01/27 08:26:01;;;;;;;;;;;;;;;;;;5065577;28;4651;-56
2023/01/27 08:28:27;;;;;;;;;;;;;;;;;;5064281;28;3539;-57
2023/01/27 08:30:52;;;;;;;;;;;;;;;;;;5066262;28;4428;-59
2023/01/27 08:33:18;;;;;;;;;;;;;;;;;;5066835;28;5116;-59
2023/01/27 08:35:43;;;;;;;;;;;;;;;;;;5064210;28;4673;-58
2023/01/27 08:38:12;;;;;;;;;;;;;;;;;;5065515;28;5181;-58
2023/01/27 08:40:41;;;;;;;;;;;;;;;;;;5067876;28;5035;-58
2023/01/27 08:43:06;;;;;;;;;;;;;;;;;;5066736;28;4584;-58
2023/01/27 08:45:31;;;;;;;;;;;;;;;;;;5064286;28;4990;-58
2023/01/27 08:47:57;;;;;;;;;;;;;;;;;;5064589;28;5068;-59
2023/01/27 08:50:22;;;;;;;;;;;;;;;;;;5067167;28;4941;-59
2023/01/27 08:52:47;;;;;;;;;;;;;;;;;;5067803;28;5804;-59
2023/01/27 08:55:12;;;;;;;;;;;;;;;;;;5066904;28;3434;-59
2023/01/27 08:57:38;;;;;;;;;;;;;;;;;;5055241;28;4523;-59
2023/01/27 09:00:04;;;;;;;;;;;;;;;;;;5046389;28;5141;-59
2023/01/27 09:02:29;;;;;;;;;;;;;;;;;;5051702;28;5120;-61
2023/01/27 09:04:54;;;;;;;;;;;;;;;;;;5048142;28;4972;-59
2023/01/27 09:07:19;;;;;;;;;;;;;;;;;;5050393;28;2208;-59
2023/01/27 09:09:45;;;;;;;;;;;;;;;;;;5050447;28;5288;-58
2023/01/27 09:12:10;;;;;;;;;;;;;;;;;;5049823;28;5224;-63
2023/01/27 09:14:36;;;;;;;;;;;;;;;;;;5051455;28;5049;-61
2023/01/27 09:17:01;;;;;;;;;;;;;;;;;;5052375;28;4639;-59
2023/01/27 09:19:26;;;;;;;;;;;;;;;;;;5051988;28;3247;-59
2023/01/27 09:21:52;;;;;;;;;;;;;;;;;;5047619;28;4991;-61
2023/01/27 09:24:18;;;;;;;;;;;;;;;;;;5053098;28;5034;-58
2023/01/27 09:26:43;;;;;;;;;;;;;;;;;;5055045;28;5444;-58
2023/01/27 09:29:08;;;;;;;;;;;;;;;;;;5048059;28;5063;-58
2023/01/27 09:31:33;;;;;;;;;;;;;;;;;;5049367;28;1103;-58
2023/01/27 09:33:59;;;;;;;;;;;;;;;;;;5067159;28;5702;-58
2023/01/27 09:36:24;;;;;;;;;;;;;;;;;;5050282;28;5062;-58
2023/01/27 09:38:55;;;;;;;;;;;;;;;;;;5044339;28;4509;-58
2023/01/27 09:41:27;;;;;;;;;;;;;;;;;;5078548;28;4750;-59
2023/01/27 09:43:59;;;;;;;;;;;;;;;;;;5048470;28;5031;-58
2023/01/27 09:46:24;;;;;;;;;;;;;;;;;;5043127;28;3309;-59
2023/01/27 09:49:08;;;;;;;;;;;;;;;;;;5043912;28;4465;-60
2023/01/27 09:51:40;;;;;;;;;;;;;;;;;;5077948;28;5149;-60
2023/01/27 09:54:12;;;;;;;;;;;;;;;;;;5041684;28;4843;-60
2023/01/27 09:56:44;;;;;;;;;;;;;;;;;;5047062;28;4988;-60
2023/01/27 09:59:12;;;;;;;;;;;;;;;;;;5042544;28;4454;-60
2023/01/27 10:01:40;;;;;;;;;;;;;;;;;;5044775;28;4599;-59
2023/01/27 10:04:16;;;;;;;;;;;;;;;;;;5045061;28;3256;-59
2023/01/27 10:06:47;;;;;;;;;;;;;;;;;;5045196;28;4884;-60
2023/01/27 10:09:15;;;;;;;;;;;;;;;;;;5039850;28;4656;-59
2023/01/27 10:11:44;;;;;;;;;;;;;;;;;;5049943;28;4700;-58
2023/01/27 10:14:09;;;;;;;;;;;;;;;;;;5047738;28;5108;-66
2023/01/27 10:16:46;;;;;;;;;;;;;;;;;;5044310;28;5032;-64
2023/01/27 10:19:19;;;;;;;;;;;;;;;;;;5046713;28;3363;-69
2023/01/27 10:21:49;;;;;;;;;;;;;;;;;;5042071;28;4996;-65
2023/01/27 10:24:14;;;;;;;;;;;;;;;;;;5079651;28;5086;-62
2023/01/27 10:26:41;;;;;;;;;;;;;;;;;;5047337;28;5500;-66
2023/01/27 10:29:14;;;;;;;;;;;;;;;;;;5046233;28;4841;-61
2023/01/27 10:31:44;;;;;;;;;;;;;;;;;;5077710;28;4904;-68
2023/01/27 10:34:17;;;;;;;;;;;;;;;;;;5079233;28;1902;-63
2023/01/27 10:36:49;;;;;;;;;;;;;;;;;;5068218;28;5058;-67
2023/01/27 10:39:32;;;;;;;;;;;;;;;;;;5027280;28;4520;-67
2023/01/27 10:42:04;;;;;;;;;;;;;;;;;;5047096;28;5041;-69
2023/01/27 10:44:29;;;;;;;;;;;;;;;;;;5049673;28;4756;-67
2023/01/27 10:46:57;;;;;;;;;;;;;;;;;;5074479;28;5440;-68
2023/01/27 10:49:33;;;;;;;;;;;;;;;;;;5046405;28;1302;-63
2023/01/27 10:52:18;;;;;;;;;;;;;;;;;;5072797;28;4886;-65
2023/01/27 10:54:47;;;;;;;;;;;;;;;;;;5042761;28;4915;-63
2023/01/27 10:57:20;;;;;;;;;;;;;;;;;;5043856;28;4477;-62
2023/01/27 10:59:46;;;;;;;;;;;;;;;;;;5041984;28;5087;-62
2023/01/27 11:02:29;;;;;;;;;;;;;;;;;;5041897;28;4754;-62
2023/01/27 11:04:56;;;;;;;;;;;;;;;;;;5047897;28;5116;-61
2023/01/27 11:07:22;;;;;;;;;;;;;;;;;;5072191;28;3260;-62
2023/01/27 11:09:47;;;;;;;;;;;;;;;;;;5039186;28;4597;-62
2023/01/27 11:12:12;;;;;;;;;;;;;;;;;;5036144;28;5771;-63
2023/01/27 11:14:37;;;;;;;;;;;;;;;;;;5044603;28;5033;-64
2023/01/27 11:17:15;;;;;;;;;;;;;;;;;;5043713;28;4527;-64
2023/01/27 11:19:46;;;;;;;;;;;;;;;;;;5044503;28;5030;-62
2023/01/27 11:22:22;;;;;;;;;;;;;;;;;;5068465;28;3303;-62
2023/01/27 11:25:19;;;;;;;;;;;;;;;;;;5040153;28;5054;-64
2023/01/27 11:27:54;;;;;;;;;;;;;;;;;;5026671;28;5108;-62
2023/01/27 11:30:21;;;;;;;;;;;;;;;;;;5045258;28;5049;-63
2023/01/27 11:32:46;;;;;;;;;;;;;;;;;;5075128;28;4902;-66
2023/01/27 11:35:12;;;;;;;;;;;;;;;;;;5043098;28;4529;-63
2023/01/27 11:37:38;;;;;;;;;;;;;;;;;;5043198;28;5112;-63
2023/01/27 11:40:06;;;;;;;;;;;;;;;;;;5072467;28;3345;-63
2023/01/27 11:42:32;;;;;;;;;;;;;;;;;;5076037;28;4493;-62
2023/01/27 11:44:57;;;;;;;;;;;;;;;;;;5076776;28;4930;-60
2023/01/27 11:47:23;;;;;;;;;;;;;;;;;;5043066;28;4559;-63
2023/01/27 11:49:49;;;;;;;;;;;;;;;;;;5070309;28;4905;-62
2023/01/27 11:52:16;;;;;;;;;;;;;;;;;;5046315;28;3180;-63
2023/01/27 11:54:41;;;;;;;;;;;;;;;;;;5044228;28;4672;-63
2023/01/27 11:57:10;;;;;;;;;;;;;;;;;;5043055;28;5028;-61
2023/01/27 11:59:36;;;;;;;;;;;;;;;;;;5079067;28;5108;-60
2023/01/27 12:02:09;;;;;;;;;;;;;;;;;;5047759;28;4914;-67
2023/01/27 12:04:44;;;;;;;;;;;;;;;;;;5080636;28;4865;-64
2023/01/27 12:07:12;;;;;;;;;;;;;;;;;;5077090;28;1266;-68
2023/01/27 12:09:38;;;;;;;;;;;;;;;;;;5050330;28;4946;-60
2023/01/27 12:12:12;;;;;;;;;;;;;;;;;;5050492;28;4984;-67
2023/01/27 12:14:37;;;;;;;;;;;;;;;;;;5049846;28;5766;-64
2023/01/27 12:17:03;;;;;;;;;;;;;;;;;;5049309;28;5148;-67
2023/01/27 12:19:30;;;;;;;;;;;;;;;;;;5049898;28;2488;-69
2023/01/27 12:21:57;;;;;;;;;;;;;;;;;;5078842;28;4946;-61
2023/01/27 12:24:32;;;;;;;;;;;;;;;;;;5078492;28;5028;-62
2023/01/27 12:26:57;;;;;;;;;;;;;;;;;;5081717;28;4905;-62
2023/01/27 12:29:27;;;;;;;;;;;;;;;;;;5049255;28;4603;-59
2023/01/27 12:31:52;;;;;;;;;;;;;;;;;;5049626;28;5034;-60
2023/01/27 12:34:21;;;;;;;;;;;;;;;;;;5076755;28;1993;-63
2023/01/27 12:36:46;;;;;;;;;;;;;;;;;;5043936;28;4942;-61
2023/01/27 12:39:29;;;;;;;;;;;;;;;;;;5047361;28;4564;-63
2023/01/27 12:41:54;;;;;;;;;;;;;;;;;;5081672;28;5282;-61
2023/01/27 12:44:22;;;;;;;;;;;;;;;;;;5053016;28;4948;-64
2023/01/27 12:46:58;;;;;;;;;;;;;;;;;;5073222;28;5022;-62
2023/01/27 12:49:23;;;;;;;;;;;;;;;;;;5049950;28;1656;-62
2023/01/27 12:51:54;;;;;;;;;;;;;;;;;;5048852;28;4664;-63
2023/01/27 12:54:26;;;;;;;;;;;;;;;;;;5079843;28;4497;-63
2023/01/27 12:56:52;;;;;;;;;;;;;;;;;;5049357;28;5028;-63
2023/01/27 12:59:18;;;;;;;;;;;;;;;;;;5079190;28;4868;-60
2023/01/27 13:01:45;;;;;;;;;;;;;;;;;;5080710;28;5019;-61
2023/01/27 13:04:11;;;;;;;;;;;;;;;;;;5044307;28;3326;-61
2023/01/27 13:06:42;;;;;;;;;;;;;;;;;;5043724;28;5090;-61
2023/01/27 13:09:26;;;;;;;;;;;;;;;;;;5046747;28;5103;-61
2023/01/27 13:11:52;;;;;;;;;;;;;;;;;;5048098;28;5346;-60
2023/01/27 13:14:17;;;;;;;;;;;;;;;;;;5048660;28;5117;-63
2023/01/27 13:16:52;;;;;;;;;;;;;;;;;;5046462;28;5175;-63
2023/01/27 13:19:17;;;;;;;;;;;;;;;;;;5044984;28;3396;-63
2023/01/27 13:21:43;;;;;;;;;;;;;;;;;;5046908;28;4890;-63
2023/01/27 13:24:09;;;;;;;;;;;;;;;;;;5046172;28;5050;-63
2023/01/27 13:26:36;;;;;;;;;;;;;;;;;;5047496;28;5084;-63
2023/01/27 13:29:04;;;;;;;;;;;;;;;;;;5046838;28;5219;-63
2023/01/27 13:31:32;;;;;;;;;;;;;;;;;;5047423;28;3252;-62
2023/01/27 13:34:03;;;;;;;;;;;;;;;;;;5064213;28;4823;-64
2023/01/27 13:36:28;;;;;;;;;;;;;;;;;;5062959;28;4923;-65
2023/01/27 13:38:56;;;;;;;;;;;;;;;;;;5069229;28;5007;-63
2023/01/27 13:41:24;;;;;;;;;;;;;;;;;;5064684;28;4737;-62
2023/01/27 13:44:10;;;;;;;;;;;;;;;;;;5063992;28;4914;-63
2023/01/27 13:46:36;;;;;;;;;;;;;;;;;;5065143;28;5023;-59
2023/01/27 13:49:11;;;;;;;;;;;;;;;;;;5065185;28;3370;-63
2023/01/27 13:51:36;;;;;;;;;;;;;;;;;;5061927;28;5084;-63
2023/01/27 13:54:02;;;;;;;;;;;;;;;;;;5093278;28;4991;-62
2023/01/27 13:56:46;;;;;;;;;;;;;;;;;;5063605;28;5036;-62
2023/01/27 13:59:15;;;;;;;;;;;;;;;;;;5064996;28;4753;-62
2023/01/27 14:01:43;;;;;;;;;;;;;;;;;;5067453;28;5049;-62
2023/01/27 14:04:08;;;;;;;;;;;;;;;;;;5061071;28;3295;-60
2023/01/27 14:06:46;;;;;;;;;;;;;;;;;;5065098;28;4879;-60
2023/01/27 14:09:11;;;;;;;;;;;;;;;;;;5067061;28;5258;-62
2023/01/27 14:11:47;;;;;;;;;;;;;;;;;;5053840;28;5036;-61
2023/01/27 14:14:45;;;;;;;;;;;;;;;;;;5065564;28;5147;-63
2023/01/27 14:17:10;;;;;;;;;;;;;;;;;;5038686;28;4937;-63
2023/01/27 14:19:43;;;;;;;;;;;;;;;;;;5061879;28;4994;-62
2023/01/27 14:22:26;;;;;;;;;;;;;;;;;;5064929;28;3428;-61
2023/01/27 14:24:52;;;;;;;;;;;;;;;;;;5063107;28;4465;-62
2023/01/27 14:27:37;;;;;;;;;;;;;;;;;;5064490;28;5099;-61
2023/01/27 14:30:21;;;;;;;;;;;;;;;;;;5060717;28;4662;-62
2023/01/27 14:32:55;;;;;;;;;;;;;;;;;;5071918;28;4525;-62
2023/01/27 14:35:31;;;;;;;;;;;;;;;;;;5057231;28;5008;-60
2023/01/27 14:38:02;;;;;;;;;;;;;;;;;;5060708;28;5075;-63
2023/01/27 14:40:29;;;;;;;;;;;;;;;;;;5066677;28;3537;-63
2023/01/27 14:43:08;;;;;;;;;;;;;;;;;;5065732;28;4968;-62
2023/01/27 14:45:37;;;;;;;;;;;;;;;;;;5064032;28;5102;-62
2023/01/27 14:48:08;;;;;;;;;;;;;;;;;;5049292;28;5038;-62
2023/01/27 14:50:54;;;;;;;;;;;;;;;;;;5049869;28;5002;-60
2023/01/27 14:53:27;;;;;;;;;;;;;;;;;;5061683;28;5004;-60
2023/01/27 14:56:07;;;;;;;;;;;;;;;;;;5065290;28;5089;-60
2023/01/27 14:58:41;;;;;;;;;;;;;;;;;;5064665;28;3151;-62
2023/01/27 15:01:09;;;;;;;;;;;;;;;;;;5066360;28;4975;-62
2023/01/27 15:03:44;;;;;;;;;;;;;;;;;;5067459;28;4903;-62
2023/01/27 15:06:12;;;;;;;;;;;;;;;;;;5067210;28;4650;-63
2023/01/27 15:08:40;;;;;;;;;;;;;;;;;;5065229;28;5029;-63
2023/01/27 15:11:15;;;;;;;;;;;;;;;;;;5066325;28;5240;-62
2023/01/27 15:14:06;;;;;;;;;;;;;;;;;;5063433;28;5128;-63
2023/01/27 15:16:37;;;;;;;;;;;;;;;;;;5064783;28;3141;-63
2023/01/27 15:19:17;;;;;;;;;;;;;;;;;;5070749;28;5620;-62
2023/01/27 15:21:42;;;;;;;;;;;;;;;;;;5071219;28;4578;-64
2023/01/27 15:24:17;;;;;;;;;;;;;;;;;;5062386;28;5129;-62
2023/01/27 15:26:42;;;;;;;;;;;;;;;;;;5059050;28;5066;-61
2023/01/27 15:29:10;;;;;;;;;;;;;;;;;;5062858;28;5183;-60
2023/01/27 15:31:36;;;;;;;;;;;;;;;;;;5066728;28;5115;-69
2023/01/27 15:34:02;;;;;;;;;;;;;;;;;;5070585;28;3239;-68
2023/01/27 15:36:27;;;;;;;;;;;;;;;;;;5064605;28;5114;-72
2023/01/27 15:39:08;;;;;;;;;;;;;;;;;;5074482;28;5011;-70
2023/01/27 15:41:54;;;;;;;;;;;;;;;;;;5076085;28;4932;-74
2023/01/27 15:44:32;;;;;;;;;;;;;;;;;;5067617;28;5288;-62
2023/01/27 15:47:06;;;;;;;;;;;;;;;;;;5067988;28;4486;-60
2023/01/27 15:49:46;;;;;;;;;;;;;;;;;;5076081;28;3597;-59
2023/01/27 15:52:23;;;;;;;;;;;;;;;;;;5068015;28;4988;-60
2023/01/27 15:54:49;;;;;;;;;;;;;;;;;;5066408;28;4909;-60
2023/01/27 15:57:28;;;;;;;;;;;;;;;;;;5099547;28;4972;-62
2023/01/27 15:59:54;;;;;;;;;;;;;;;;;;5092079;28;4460;-59
2023/01/27 16:02:22;;;;;;;;;;;;;;;;;;5100187;28;4940;-60
2023/01/27 16:05:04;;;;;;;;;;;;;;;;;;5098142;28;5308;-61
2023/01/27 16:07:30;;;;;;;;;;;;;;;;;;5067712;28;3231;-61
2023/01/27 16:09:55;;;;;;;;;;;;;;;;;;5097441;28;4445;-60
2023/01/27 16:12:26;;;;;;;;;;;;;;;;;;5058361;28;4680;-61
2023/01/27 16:15:10;;;;;;;;;;;;;;;;;;5057747;28;5017;-59
2023/01/27 16:17:54;;;;;;;;;;;;;;;;;;5058984;28;5295;-61
2023/01/27 16:20:20;;;;;;;;;;;;;;;;;;5064351;28;5102;-59
2023/01/27 16:22:46;;;;;;;;;;;;;;;;;;5083871;28;4449;-61
2023/01/27 16:25:18;;;;;;;;;;;;;;;;;;5066346;28;3394;-61
2023/01/27 16:27:43;;;;;;;;;;;;;;;;;;5093815;28;5034;-61
2023/01/27 16:30:16;;;;;;;;;;;;;;;;;;5064854;28;5004;-59
2023/01/27 16:32:48;;;;;;;;;;;;;;;;;;5073327;28;4459;-61
2023/01/27 16:35:18;;;;;;;;;;;;;;;;;;5068624;28;5072;-61
2023/01/27 16:38:03;;;;;;;;;;;;;;;;;;5059294;28;4901;-61
2023/01/27 16:40:29;;;;;;;;;;;;;;;;;;5072407;28;1241;-60
2023/01/27 16:42:55;;;;;;;;;;;;;;;;;;5102420;27;4692;-60
2023/01/27 16:45:22;;;;;;;;;;;;;;;;;;5070007;28;4458;-60
2023/01/27 16:47:48;;;;;;;;;;;;;;;;;;5098314;28;4639;-60
2023/01/27 16:50:40;;;;;;;;;;;;;;;;;;5064652;28;5056;-60
2023/01/27 16:53:19;;;;;;;;;;;;;;;;;;5042540;28;5087;-60
2023/01/27 16:56:04;;;;;;;;;;;;;;;;;;5081999;28;5004;-60
2023/01/27 16:58:30;;;;;;;;;;;;;;;;;;5043918;28;1427;-60
2023/01/27 17:00:55;;;;;;;;;;;;;;;;;;5079354;28;4981;-60
2023/01/27 17:03:28;;;;;;;;;;;;;;;;;;5096778;28;5000;-60
2023/01/27 17:05:53;;;;;;;;;;;;;;;;;;5097807;28;5007;-60
2023/01/27 17:08:25;;;;;;;;;;;;;;;;;;5068410;28;5024;-60
2023/01/27 17:10:53;;;;;;;;;;;;;;;;;;5067226;28;4621;-60
2023/01/27 17:13:25;;;;;;;;;;;;;;;;;;5042519;28;1093;-60
2023/01/27 17:15:51;;;;;;;;;;;;;;;;;;5047737;28;4942;-60
2023/01/27 17:18:16;;;;;;;;;;;;;;;;;;5047882;28;5066;-60
2023/01/27 17:20:41;;;;;;;;;;;;;;;;;;5078988;28;5169;-61
2023/01/27 17:23:09;;;;;;;;;;;;;;;;;;5080440;28;5021;-60
2023/01/27 17:25:35;;;;;;;;;;;;;;;;;;5074108;28;3157;-59
2023/01/27 17:28:01;;;;;;;;;;;;;;;;;;5081605;28;4697;-60
2023/01/27 17:30:29;;;;;;;;;;;;;;;;;;5041175;28;4953;-60
2023/01/27 17:32:55;;;;;;;;;;;;;;;;;;5081361;28;4655;-60
2023/01/27 17:35:21;;;;;;;;;;;;;;;;;;5078952;28;5178;-61
2023/01/27 17:37:46;;;;;;;;;;;;;;;;;;5047889;28;4499;-61
2023/01/27 17:40:15;;;;;;;;;;;;;;;;;;5048091;28;3248;-61
2023/01/27 17:42:41;;;;;;;;;;;;;;;;;;5079402;28;4988;-61